Time;durP1;ratioP1;P1;durP2;ratioP2;P2;SDS_P1;SDS_P2;PMS_P1;PMS_P2;Temp;Humidity;BMP_temperature;BMP_pressure;BME280_temperature;BME280_humidity;BME280_pressure;Samples;Min_cycle;Max_cycle;Signal;HPM_P1;HPM_P2
2020/12/18 00:00:05;;;;;;;51.10;25.67;;;;;;;3.57;77.06;100530.75;5095794;28;20044;-46
2020/12/18 00:02:53;;;;;;;49.97;26.95;;;;;;;3.56;77.04;100529.00;5093731;28;20040;-46
2020/12/18 00:05:19;;;;;;;49.95;26.25;;;;;;;3.61;76.72;100525.66;5096286;28;20044;-46
2020/12/18 00:07:45;;;;;;;51.97;26.83;;;;;;;3.61;76.75;100529.97;5096173;28;20036;-46
2020/12/18 00:10:10;;;;;;;49.20;27.15;;;;;;;3.62;76.81;100529.97;5095319;28;20044;-46
2020/12/18 00:12:36;;;;;;;49.35;25.83;;;;;;;3.66;76.90;100523.97;5095554;28;20051;-46
2020/12/18 00:15:03;;;;;;;50.05;25.92;;;;;;;3.71;76.70;100527.53;5095281;28;20395;-46
2020/12/18 00:17:28;;;;;;;50.28;25.98;;;;;;;3.72;76.58;100539.63;5095133;28;20055;-46
2020/12/18 00:19:54;;;;;;;44.92;24.48;;;;;;;3.72;76.58;100530.97;5096350;28;20109;-46
2020/12/18 00:22:20;;;;;;;51.72;26.40;;;;;;;3.75;76.54;100531.88;5078591;28;20040;-46
2020/12/18 00:24:46;;;;;;;49.75;25.33;;;;;;;3.77;76.30;100537.09;5096287;28;20055;-46
2020/12/18 00:27:12;;;;;;;49.60;25.27;;;;;;;3.77;76.57;100539.69;5095388;28;20044;-46
2020/12/18 00:29:38;;;;;;;46.03;25.08;;;;;;;3.77;76.61;100544.88;5095398;28;20063;-46
2020/12/18 00:32:05;;;;;;;47.90;25.65;;;;;;;3.81;76.18;100545.78;5098548;28;20345;-46
2020/12/18 00:34:30;;;;;;;42.47;24.58;;;;;;;3.84;76.44;100545.84;5100171;28;20056;-46
2020/12/18 00:36:56;;;;;;;43.83;25.00;;;;;;;3.88;76.17;100547.63;5099106;28;20062;-46
2020/12/18 00:39:22;;;;;;;47.70;25.95;;;;;;;3.90;76.45;100545.91;5098975;28;20052;-46
2020/12/18 00:41:52;;;;;;;47.03;24.83;;;;;;;3.96;76.16;100551.16;5099851;28;20051;-46
2020/12/18 00:44:19;;;;;;;50.47;25.85;;;;;;;3.92;76.38;100551.97;5099305;28;20128;-46
2020/12/18 00:46:45;;;;;;;43.83;25.58;;;;;;;3.92;76.58;100555.44;5099787;28;20456;-46
2020/12/18 00:49:11;;;;;;;46.47;23.70;;;;;;;3.94;76.59;100556.34;5100323;28;20127;-46
2020/12/18 00:51:37;;;;;;;46.70;25.02;;;;;;;3.94;76.21;100560.66;5098963;28;20040;-46
2020/12/18 00:54:02;;;;;;;51.92;27.88;;;;;;;3.94;76.51;100558.06;5099931;28;20050;-46
2020/12/18 00:56:29;;;;;;;55.58;29.05;;;;;;;3.96;76.55;100559.84;5081875;28;20173;-46
2020/12/18 00:58:54;;;;;;;60.72;30.13;;;;;;;3.89;76.88;100565.75;5099626;28;20383;-46
2020/12/18 01:01:22;;;;;;;50.85;27.67;;;;;;;3.92;77.23;100559.75;5098898;28;20052;-46
2020/12/18 01:03:48;;;;;;;52.85;28.92;;;;;;;3.95;77.36;100565.00;5099390;28;20104;-46
2020/12/18 01:06:15;;;;;;;48.92;25.92;;;;;;;3.93;77.46;100564.97;5098590;28;20104;-46
2020/12/18 01:08:55;;;;;;;52.22;27.23;;;;;;;3.94;77.54;100566.72;5098873;28;20094;-46
2020/12/18 01:11:25;;;;;;;51.40;27.90;;;;;;;3.95;77.77;100570.16;5098458;28;20049;-46
2020/12/18 01:13:51;;;;;;;49.42;25.92;;;;;;;3.95;78.08;100572.75;5099053;28;20428;-46
2020/12/18 01:16:17;;;;;;;49.67;26.83;;;;;;;3.96;78.00;100567.63;5098656;28;20197;-46
2020/12/18 01:18:51;;;;;;;52.85;28.40;;;;;;;3.93;78.28;100571.84;5098417;28;20356;-46
2020/12/18 01:21:17;;;;;;;46.10;26.52;;;;;;;3.96;78.23;100571.91;5098570;28;20144;-46
2020/12/18 01:23:43;;;;;;;46.47;25.13;;;;;;;3.92;78.36;100573.59;5099276;28;20129;-46
2020/12/18 01:26:12;;;;;;;49.63;27.10;;;;;;;4.00;78.33;100573.72;5099295;28;20143;-46
2020/12/18 01:28:38;;;;;;;49.08;26.75;;;;;;;3.95;78.33;100581.41;5081472;28;20070;-46
2020/12/18 01:31:04;;;;;;;41.88;24.13;;;;;;;3.97;78.71;100568.47;5098375;28;20055;-46
2020/12/18 01:33:33;;;;;;;46.47;27.17;;;;;;;4.00;78.65;100568.53;5098050;28;20549;-46
2020/12/18 01:36:05;;;;;;;50.47;27.90;;;;;;;3.95;78.87;100573.63;5082021;28;20070;-46
2020/12/18 01:38:33;;;;;;;46.00;26.27;;;;;;;4.01;78.78;100578.03;5081721;28;20404;-46
2020/12/18 01:40:59;;;;;;;46.38;25.90;;;;;;;4.05;78.49;100581.53;5098136;28;20420;-46
2020/12/18 01:43:25;;;;;;;50.10;28.10;;;;;;;4.04;78.75;100578.06;5097138;28;20040;-46
2020/12/18 01:45:52;;;;;;;50.22;27.10;;;;;;;4.04;79.00;100572.03;5098861;28;20048;-46
2020/12/18 01:48:19;;;;;;;45.45;25.23;;;;;;;4.05;79.05;100581.53;5081225;28;20093;-46
2020/12/18 01:50:52;;;;;;;;;;;;;;;3.84;79.66;100577.81;5098440;28;20048;-46
2020/12/18 01:53:22;;;;;;;53.22;29.10;;;;;;;3.93;79.63;100582.22;5081701;28;20007;-46
2020/12/18 01:56:08;;;;;;;52.75;28.45;;;;;;;4.01;79.29;100580.63;5098191;28;20048;-46
2020/12/18 01:58:39;;;;;;;52.67;27.80;;;;;;;4.04;79.59;100592.78;5097508;28;20497;-46
2020/12/18 02:01:09;;;;;;;49.30;28.13;;;;;;;4.03;79.75;100586.72;5097533;28;20044;-46
2020/12/18 02:03:44;;;;;;;51.85;29.52;;;;;;;4.09;79.58;100589.38;5082027;28;20048;-46
2020/12/18 02:06:15;;;;;;;55.85;29.48;;;;;;;4.09;79.62;100593.69;5097439;28;20139;-46
2020/12/18 02:09:10;;;;;;;54.10;29.00;;;;;;;4.07;79.72;100587.63;5097518;28;20172;-46
2020/12/18 02:11:46;;;;;;;49.20;27.23;;;;;;;4.10;79.44;100587.66;5097603;28;20051;-46
2020/12/18 02:14:16;;;;;;;59.92;31.85;;;;;;;4.14;79.45;100600.69;5097570;28;20059;-46
2020/12/18 02:16:47;;;;;;;50.55;28.77;;;;;;;4.11;79.64;100594.59;5065177;28;20040;-46
2020/12/18 02:19:20;;;;;;;54.55;30.85;;;;;;;4.12;79.94;100593.72;5097754;28;20054;-46
2020/12/18 02:21:46;;;;;;;59.75;31.98;;;;;;;4.11;79.83;100598.03;5064400;28;20043;-46
2020/12/18 02:24:25;;;;;;;51.17;28.10;;;;;;;4.15;79.87;100596.38;5080780;28;20063;-46
2020/12/18 02:26:53;;;;;;;63.70;29.80;;;;;;;4.09;80.16;100604.06;5097855;28;20098;-46
2020/12/18 02:29:19;;;;;;;52.28;28.38;;;;;;;4.10;80.20;100593.72;5097204;28;20048;-46
2020/12/18 02:31:54;;;;;;;48.88;27.10;;;;;;;4.10;80.22;100598.91;5097549;28;20139;-46
2020/12/18 02:34:34;;;;;;;50.53;27.92;;;;;;;4.09;80.15;100594.56;5097186;28;20048;-46
2020/12/18 02:37:07;;;;;;;52.97;29.15;;;;;;;4.14;80.23;100595.50;5081195;28;20052;-46
2020/12/18 02:39:35;;;;;;;53.28;28.80;;;;;;;4.15;79.84;100597.22;5097169;28;20444;-46
2020/12/18 02:42:06;;;;;;;50.75;29.17;;;;;;;4.18;80.09;100599.88;5097274;28;20127;-46
2020/12/18 02:44:44;;;;;;;58.17;30.08;;;;;;;4.24;79.83;100595.63;5097008;28;20126;-46
2020/12/18 02:47:30;;;;;;;50.88;28.33;;;;;;;4.18;80.14;100594.69;5097548;28;20071;-46
2020/12/18 02:49:56;;;;;;;54.75;28.20;;;;;;;4.22;79.98;100600.78;5096827;28;20048;-46
2020/12/18 02:52:34;;;;;;;45.30;27.30;;;;;;;4.21;79.94;100599.91;5097712;28;20055;-46
2020/12/18 02:55:18;;;;;;;51.40;26.55;;;;;;;4.16;80.37;100600.69;5096598;28;20047;-46
2020/12/18 02:58:02;;;;;;;48.92;28.13;;;;;;;4.19;80.29;100605.91;5097559;28;20043;-46
2020/12/18 03:00:36;;;;;;;52.90;28.95;;;;;;;4.20;80.06;100608.56;5096705;28;20059;-46
2020/12/18 03:03:04;;;;;;;52.78;29.73;;;;;;;4.21;80.05;100604.22;5096450;28;20056;-46
2020/12/18 03:05:31;;;;;;;52.63;30.45;;;;;;;4.17;80.04;100605.06;5096597;28;20052;-46
2020/12/18 03:08:13;;;;;;;62.70;33.00;;;;;;;4.11;80.42;100608.41;5096515;28;20062;-46
2020/12/18 03:10:39;;;;;;;57.92;31.55;;;;;;;4.19;80.22;100609.41;5079328;28;20447;-46
2020/12/18 03:13:05;;;;;;;51.15;29.15;;;;;;;4.12;80.58;100611.88;5096387;28;20046;-46
2020/12/18 03:15:32;;;;;;;55.50;30.20;;;;;;;4.18;80.35;100611.97;5096084;28;20479;-46
2020/12/18 03:18:05;;;;;;;49.03;26.75;;;;;;;4.18;80.73;100606.78;5080185;28;20048;-46
2020/12/18 03:20:34;;;;;;;55.67;29.08;;;;;;;4.24;80.18;100609.47;5095892;28;20036;-46
2020/12/18 03:23:35;;;;;;;51.20;28.30;;;;;;;4.24;80.02;100612.06;5095134;28;20056;-46
2020/12/18 03:26:23;;;;;;;51.63;29.33;;;;;;;4.20;80.32;100605.09;5053840;28;20052;-46
2020/12/18 03:28:55;;;;;;;47.85;28.30;;;;;;;4.21;80.42;100612.00;5095818;28;20048;-46
2020/12/18 03:31:22;;;;;;;48.58;26.90;;;;;;;4.25;80.29;100616.38;5096111;28;20387;-46
2020/12/18 03:33:48;;;;;;;52.38;29.60;;;;;;;4.24;80.05;100614.66;5096941;28;20048;-46
2020/12/18 03:36:52;;;;;;;58.28;31.10;;;;;;;4.14;80.41;100618.84;5083817;28;20123;-46
2020/12/18 03:39:19;;;;;;;49.97;28.90;;;;;;;4.19;80.34;100622.38;5077992;28;20085;-46
2020/12/18 03:42:11;;;;;;;48.72;27.05;;;;;;;4.20;80.16;100618.06;5096103;28;20078;-46
2020/12/18 03:44:38;;;;;;;47.95;25.85;;;;;;;4.26;80.10;100618.16;5095864;28;20063;-46
2020/12/18 03:47:04;;;;;;;46.50;26.80;;;;;;;4.29;80.11;100617.28;5095885;28;20344;-46
2020/12/18 03:49:45;;;;;;;48.67;26.85;;;;;;;4.31;79.99;100616.47;5096740;28;20040;-46
2020/12/18 03:52:10;;;;;;;44.40;25.30;;;;;;;4.33;79.79;100613.91;5095795;28;20112;-46
2020/12/18 03:54:41;;;;;;;41.13;22.98;;;;;;;4.33;79.74;100614.78;5079736;28;20063;-46
2020/12/18 03:57:28;;;;;;;45.00;24.50;;;;;;;4.32;79.75;100613.03;5095530;28;20062;-46
2020/12/18 04:00:13;;;;;;;46.95;25.52;;;;;;;4.32;79.90;100614.75;5095670;28;20052;-46
2020/12/18 04:02:43;;;;;;;46.13;26.45;;;;;;;4.32;79.59;100618.22;5095368;28;20121;-46
2020/12/18 04:05:11;;;;;;;53.25;28.98;;;;;;;4.29;79.70;100614.69;5078760;28;20052;-46
2020/12/18 04:07:38;;;;;;;47.22;26.55;;;;;;;4.19;79.81;100599.03;5078763;28;20392;-46
2020/12/18 04:10:15;;;;;;;47.03;27.13;;;;;;;4.29;79.77;100614.69;5080442;28;20043;-46
2020/12/18 04:12:55;;;;;;;49.58;26.92;;;;;;;4.30;79.55;100617.31;5095244;28;20345;-46
2020/12/18 04:15:21;;;;;;;53.53;29.90;;;;;;;4.35;79.45;100617.38;5095520;28;20048;-46
2020/12/18 04:17:48;;;;;;;48.97;27.52;;;;;;;4.27;79.59;100621.59;5095274;28;20442;-46
2020/12/18 04:20:15;;;;;;;49.10;26.73;;;;;;;4.30;79.53;100616.47;5096127;28;20051;-46
2020/12/18 04:22:53;;;;;;;53.47;29.23;;;;;;;4.29;79.39;100620.78;5094863;28;20043;-46
2020/12/18 04:25:44;;;;;;;55.40;29.13;;;;;;;4.22;79.97;100619.81;5095898;28;20356;-46
2020/12/18 04:28:10;;;;;;;53.05;27.83;;;;;;;4.26;79.86;100622.44;5096295;28;20112;-46
2020/12/18 04:30:37;;;;;;;50.97;27.92;;;;;;;4.19;79.88;100617.19;5095429;28;20071;-46
2020/12/18 04:33:02;;;;;;;54.05;27.08;;;;;;;4.23;79.97;100623.28;5095000;28;20040;-46
2020/12/18 04:35:29;;;;;;;50.58;27.88;;;;;;;4.21;80.23;100624.97;5096197;28;20067;-46
2020/12/18 04:38:16;;;;;;;53.28;28.48;;;;;;;4.20;79.82;100626.69;5095659;28;20044;-46
2020/12/18 04:41:05;;;;;;;51.90;28.50;;;;;;;4.18;80.13;100622.34;5095859;28;20063;-46
2020/12/18 04:43:46;;;;;;;52.13;29.52;;;;;;;4.16;80.13;100630.13;5095270;28;20339;-46
2020/12/18 04:46:21;;;;;;;59.20;31.70;;;;;;;4.20;80.17;100631.03;5095308;28;20040;-46
2020/12/18 04:48:48;;;;;;;54.78;29.33;;;;;;;4.17;80.36;100630.97;5078216;28;20044;-46
2020/12/18 04:51:23;;;;;;;54.95;28.48;;;;;;;4.18;80.37;100630.97;5095212;28;20112;-46
2020/12/18 04:53:56;;;;;;;52.58;28.55;;;;;;;4.18;80.32;100632.72;5095563;28;20401;-46
2020/12/18 04:56:42;;;;;;;54.13;29.33;;;;;;;4.14;80.47;100628.34;5095142;28;20127;-46
2020/12/18 04:59:15;;;;;;;51.38;27.45;;;;;;;4.17;80.09;100633.56;5079414;28;20340;-46
2020/12/18 05:01:59;;;;;;;54.65;29.63;;;;;;;4.13;80.24;100636.97;5080731;28;20413;-46
2020/12/18 05:04:32;;;;;;;63.35;32.28;;;;;;;4.11;80.04;100636.94;5063210;28;20060;-46
2020/12/18 05:07:23;;;;;;;59.03;32.08;;;;;;;4.07;80.29;100645.53;5081584;28;20085;-46
2020/12/18 05:09:53;;;;;;;56.35;30.75;;;;;;;3.98;80.47;100650.56;5094811;28;20036;-46
2020/12/18 05:12:39;;;;;;;49.63;27.65;;;;;;;3.95;80.75;100655.72;5096341;28;20086;-46
2020/12/18 05:15:05;;;;;;;57.05;30.92;;;;;;;3.96;80.39;100654.84;5095012;28;20348;-46
2020/12/18 05:17:47;;;;;;;58.20;29.35;;;;;;;3.93;80.20;100654.81;5078893;28;20051;-46
2020/12/18 05:20:14;;;;;;;58.38;29.35;;;;;;;3.89;80.06;100653.03;5098614;28;20108;-46
2020/12/18 05:23:08;;;;;;;58.90;30.02;;;;;;;3.90;80.09;100652.16;5085240;28;20111;-46
2020/12/18 05:25:49;;;;;;;54.95;29.70;;;;;;;3.80;80.28;100652.88;5098859;28;20093;-46
2020/12/18 05:28:18;;;;;;;55.95;29.90;;;;;;;3.74;79.87;100649.34;5097987;28;20494;-46
2020/12/18 05:30:46;;;;;;;55.97;29.60;;;;;;;3.73;80.22;100655.38;5099037;28;20046;-46
2020/12/18 05:33:35;;;;;;;52.03;29.52;;;;;;;3.65;80.31;100659.56;5089024;28;20048;-46
2020/12/18 05:36:26;;;;;;;56.72;29.02;;;;;;;3.61;80.32;100662.97;5098396;28;20044;-46
2020/12/18 05:38:55;;;;;;;51.97;29.38;;;;;;;3.56;80.06;100662.00;5098038;28;20036;-46
2020/12/18 05:41:32;;;;;;;51.42;26.73;;;;;;;3.51;79.90;100667.09;5099147;28;20051;-46
2020/12/18 05:43:58;;;;;;;51.25;27.33;;;;;;;3.46;79.67;100671.31;5097994;28;20147;-46
2020/12/18 05:46:43;;;;;;;55.15;28.88;;;;;;;3.35;79.99;100678.03;5070068;28;20063;-46
2020/12/18 05:49:31;;;;;;;49.33;26.23;;;;;;;3.28;80.00;100671.88;5097780;28;20470;-46
2020/12/18 05:52:03;;;;;;;53.58;29.20;;;;;;;3.21;79.96;100676.91;5098359;28;20119;-46
2020/12/18 05:54:44;;;;;;;59.33;30.42;;;;;;;3.15;79.95;100677.69;5098528;28;20048;-46
2020/12/18 05:57:15;;;;;;;55.50;28.27;;;;;;;3.10;79.77;100674.13;5097892;28;20051;-46
2020/12/18 05:59:47;;;;;;;50.97;28.52;;;;;;;3.04;79.84;100674.00;5097927;28;20072;-46
2020/12/18 06:02:23;;;;;;;49.75;28.75;;;;;;;2.98;79.93;100679.94;5097464;28;20444;-46
2020/12/18 06:05:11;;;;;;;57.88;32.13;;;;;;;2.89;80.05;100686.63;5070631;28;20093;-46
2020/12/18 06:07:56;;;;;;;57.85;32.30;;;;;;;2.81;80.21;100684.78;5097449;28;20325;-46
2020/12/18 06:10:27;;;;;;;52.22;28.20;;;;;;;2.80;80.11;100692.53;5097757;28;20040;-46
2020/12/18 06:13:07;;;;;;;55.63;28.05;;;;;;;2.71;79.76;100684.56;5098072;28;20127;-46
2020/12/18 06:15:54;;;;;;;49.90;27.10;;;;;;;2.63;79.70;100686.09;5097693;28;20108;-46
2020/12/18 06:18:26;;;;;;;51.28;27.63;;;;;;;2.55;79.94;100692.00;5081831;28;20047;-46
2020/12/18 06:20:52;;;;;;;56.53;29.20;;;;;;;2.52;79.60;100691.94;5080613;28;20452;-53
2020/12/18 06:23:18;;;;;;;59.00;27.88;;;;;;;2.49;79.69;100685.81;5063976;28;20403;-53
2020/12/18 06:26:12;;;;;;;59.53;30.65;;;;;;;2.40;79.75;100690.78;5098124;28;20420;-53
2020/12/18 06:29:03;;;;;;;59.83;28.27;;;;;;;2.37;79.92;100707.09;5097353;28;20189;-53
2020/12/18 06:31:32;;;;;;;59.53;30.27;;;;;;;2.29;80.15;100706.94;5096901;28;20342;-53
2020/12/18 06:34:28;;;;;;;63.60;32.70;;;;;;;2.27;80.37;100705.16;5098274;28;20044;-54
2020/12/18 06:37:34;;;;;;;71.68;35.17;;;;;;;2.22;80.87;100705.06;5098068;28;20119;-54
2020/12/18 06:40:31;;;;;;;88.40;41.40;;;;;;;2.22;80.66;100711.94;5097099;28;20131;-53
2020/12/18 06:43:33;;;;;;;70.57;35.63;;;;;;;2.17;80.73;100718.69;5096590;28;20359;-52
2020/12/18 06:46:22;;;;;;;68.15;34.45;;;;;;;2.13;80.70;100727.22;5096993;28;20044;-53
2020/12/18 06:49:10;;;;;;;72.00;33.83;;;;;;;2.14;80.73;100723.78;5087476;28;20052;-53
2020/12/18 06:52:05;;;;;;;66.82;34.05;;;;;;;2.15;80.59;100716.09;5096488;28;20113;-53
2020/12/18 06:54:57;;;;;;;59.88;30.65;;;;;;;2.17;80.69;100731.63;5096642;28;20040;-53
2020/12/18 06:57:43;;;;;;;70.55;33.53;;;;;;;2.15;81.03;100728.16;5097244;28;20055;-53
2020/12/18 07:00:21;;;;;;;57.55;30.25;;;;;;;2.18;81.01;100738.53;5097539;28;20052;-53
2020/12/18 07:02:50;;;;;;;65.05;32.17;;;;;;;2.20;81.07;100737.72;5096932;28;20044;-53
2020/12/18 07:05:38;;;;;;;73.60;35.15;;;;;;;2.26;81.27;100744.78;5096344;28;20054;-52
2020/12/18 07:08:13;;;;;;;69.45;32.75;;;;;;;2.30;81.10;100744.00;5097364;28;20044;-53
2020/12/18 07:10:39;;;;;;;83.75;37.63;;;;;;;2.32;81.29;100748.38;5096432;28;20341;-54
2020/12/18 07:13:06;;;;;;;61.33;31.52;;;;;;;2.38;81.49;100751.94;5097062;28;20055;-53
2020/12/18 07:15:46;;;;;;;67.07;33.78;;;;;;;2.46;81.36;100753.84;5096432;28;20059;-46
2020/12/18 07:18:33;;;;;;;61.25;31.90;;;;;;;2.49;81.63;100753.06;5097269;28;20051;-54
2020/12/18 07:21:07;;;;;;;60.42;31.73;;;;;;;2.55;81.56;100751.47;5095779;28;20341;-53
2020/12/18 07:23:35;;;;;;;76.13;36.40;;;;;;;2.61;81.63;100755.94;5097065;28;20059;-53
2020/12/18 07:26:02;;;;;;;70.20;33.95;;;;;;;2.59;81.82;100752.41;5096363;28;20048;-45
2020/12/18 07:28:28;;;;;;;61.63;32.10;;;;;;;2.64;81.74;100762.88;5097359;28;20070;-46
2020/12/18 07:30:55;;;;;;;82.50;36.88;;;;;;;2.67;81.68;100763.81;5095982;28;20047;-46
2020/12/18 07:33:21;;;;;;;147.52;66.20;;;;;;;2.76;81.93;100760.53;5096576;28;20052;-45
2020/12/18 07:35:56;;;;;;;132.32;62.30;;;;;;;2.83;81.83;100770.22;5096970;28;20067;-53
2020/12/18 07:38:28;;;;;;;94.38;49.42;;;;;;;2.90;81.97;100763.44;5096853;28;20048;-53
2020/12/18 07:40:55;;;;;;;65.18;35.72;;;;;;;2.94;81.76;100771.28;5095846;28;20135;-53
2020/12/18 07:43:31;;;;;;;57.78;31.33;;;;;;;3.01;81.83;100767.13;5096504;28;20055;-53
2020/12/18 07:45:58;;;;;;;67.20;32.55;;;;;;;2.99;82.25;100761.94;5095507;28;20059;-53
2020/12/18 07:48:29;;;;;;;86.70;45.40;;;;;;;3.09;82.09;100770.75;5096058;28;20130;-52
2020/12/18 07:51:08;;;;;;;65.97;34.55;;;;;;;3.17;82.10;100776.09;5096453;28;20036;-53
2020/12/18 07:53:38;;;;;;;65.22;34.78;;;;;;;3.26;81.89;100774.56;5096404;28;20054;-53
2020/12/18 07:56:11;;;;;;;60.90;32.03;;;;;;;3.31;81.72;100774.63;5096387;28;20080;-53
2020/12/18 07:58:53;;;;;;;80.57;38.35;;;;;;;3.43;81.56;100772.28;5097045;28;20044;-52
2020/12/18 08:01:21;;;;;;;70.50;37.87;;;;;;;3.47;81.62;100778.41;5096598;28;20055;-53
2020/12/18 08:03:50;;;;;;;60.53;31.77;;;;;;;3.57;81.81;100767.34;5095887;28;20364;-53
2020/12/18 08:06:21;;;;;;;62.38;32.80;;;;;;;3.74;81.70;100778.91;5096182;28;20360;-54
2020/12/18 08:08:53;;;;;;;70.70;34.05;;;;;;;3.80;81.66;100774.69;5096216;28;20040;-53
2020/12/18 08:11:19;;;;;;;89.28;42.45;;;;;;;3.82;81.55;100779.03;5096113;28;20052;-53
2020/12/18 08:13:45;;;;;;;81.70;40.25;;;;;;;3.95;81.56;100782.72;5095247;28;20433;-53
2020/12/18 08:16:21;;;;;;;68.15;34.35;;;;;;;4.03;81.17;100777.66;5096604;28;20051;-53
2020/12/18 08:18:51;;;;;;;66.32;35.78;;;;;;;4.12;81.17;100781.28;5095741;28;20056;-53
2020/12/18 08:21:21;;;;;;;69.53;36.25;;;;;;;4.24;80.77;100778.03;5095523;28;20044;-54
2020/12/18 08:23:53;;;;;;;67.85;35.85;;;;;;;4.43;80.90;100776.59;5095812;28;20044;-54
2020/12/18 08:26:20;;;;;;;64.88;34.97;;;;;;;4.55;80.70;100770.69;5095233;28;20044;-53
2020/12/18 08:28:46;;;;;;;54.05;29.23;;;;;;;4.81;80.81;100768.47;5096357;28;20071;-54
2020/12/18 08:31:11;;;;;;;55.08;28.98;;;;;;;5.28;80.15;100770.81;5095407;28;20059;-53
2020/12/18 08:33:47;;;;;;;60.47;30.35;;;;;;;5.60;79.13;100773.78;5045297;28;20051;-54
2020/12/18 08:36:14;;;;;;;68.43;32.92;;;;;;;5.60;78.55;100777.25;5095986;28;20398;-54
2020/12/18 08:38:40;;;;;;;63.88;32.05;;;;;;;5.68;78.35;100779.91;5095283;28;20101;-54
2020/12/18 08:41:05;;;;;;;61.35;30.77;;;;;;;5.76;77.78;100780.88;5095920;28;20052;-54
2020/12/18 08:43:31;;;;;;;66.60;33.60;;;;;;;5.81;77.48;100780.91;5095712;28;20048;-54
2020/12/18 08:45:57;;;;;;;79.32;39.67;;;;;;;5.86;77.25;100781.84;5095954;28;20054;-54
2020/12/18 08:48:26;;;;;;;66.68;34.03;;;;;;;5.95;76.63;100788.91;5061581;28;20066;-54
2020/12/18 08:51:01;;;;;;;68.15;34.45;;;;;;;6.00;75.85;100788.06;5096352;28;20043;-54
2020/12/18 08:53:31;;;;;;;93.28;42.58;;;;;;;5.98;75.63;100795.00;5098886;28;20063;-53
2020/12/18 08:56:06;;;;;;;66.20;34.60;;;;;;;5.91;75.43;100794.88;5099024;28;20337;-53
2020/12/18 08:58:33;;;;;;;51.53;27.77;;;;;;;5.78;75.54;100794.75;5099958;28;20052;-53
2020/12/18 09:01:00;;;;;;;58.65;33.05;;;;;;;5.73;75.70;100796.44;5100182;28;20047;-54
2020/12/18 09:03:26;;;;;;;63.05;35.42;;;;;;;5.83;76.04;100800.88;5081536;28;20052;-54
2020/12/18 09:05:51;;;;;;;79.72;46.60;;;;;;;5.97;76.12;100797.56;5081170;28;20040;-53
2020/12/18 09:08:20;;;;;;;57.58;33.08;;;;;;;6.27;75.08;100807.34;5099142;28;20190;-54
2020/12/18 09:10:49;;;;;;;52.55;28.05;;;;;;;6.25;74.71;100804.75;5099339;28;20131;-54
2020/12/18 09:13:22;;;;;;;46.85;25.50;;;;;;;6.36;74.63;100806.56;5099321;28;20044;-54
2020/12/18 09:15:59;;;;;;;69.72;36.83;;;;;;;6.40;74.22;100806.63;5099198;28;20050;-54
2020/12/18 09:18:26;;;;;;;60.83;36.80;;;;;;;6.31;74.80;100806.56;5099538;28;20062;-54
2020/12/18 09:20:53;;;;;;;49.10;28.00;;;;;;;6.41;74.17;100810.09;5098948;28;20051;-54
2020/12/18 09:23:31;;;;;;;44.65;24.60;;;;;;;6.33;74.20;100810.88;5098087;28;20366;-54
2020/12/18 09:25:59;;;;;;;35.90;20.58;;;;;;;6.26;74.48;100813.44;5098205;28;20048;-54
2020/12/18 09:28:25;;;;;;;36.30;20.35;;;;;;;6.35;74.13;100807.44;5099356;28;20129;-54
2020/12/18 09:31:00;;;;;;;34.65;20.55;;;;;;;6.34;73.79;100809.19;5098865;28;20452;-53
2020/12/18 09:33:30;;;;;;;41.67;20.90;;;;;;;6.30;74.17;100807.38;5099601;28;20047;-54
2020/12/18 09:36:00;;;;;;;36.63;22.05;;;;;;;6.29;73.87;100803.06;5098798;28;20046;-54
2020/12/18 09:38:39;;;;;;;34.47;20.63;;;;;;;6.29;73.92;100809.13;5098852;28;20455;-54
2020/12/18 09:41:13;;;;;;;39.75;23.55;;;;;;;6.27;73.98;100799.56;5098917;28;20398;-54
2020/12/18 09:43:39;;;;;;;36.75;20.15;;;;;;;6.26;74.10;100805.63;5082332;28;20503;-54
2020/12/18 09:46:05;;;;;;;40.35;22.10;;;;;;;6.27;74.65;100800.44;5097608;28;20044;-54
2020/12/18 09:48:31;;;;;;;34.40;20.70;;;;;;;6.32;74.56;100797.88;5098664;28;20344;-54
2020/12/18 09:50:58;;;;;;;39.40;21.85;;;;;;;6.44;74.86;100802.31;5097698;28;20046;-54
2020/12/18 09:53:24;;;;;;;34.80;20.65;;;;;;;6.51;74.71;100804.97;5098307;28;20044;-54
2020/12/18 09:55:51;;;;;;;32.47;18.65;;;;;;;6.64;74.32;100794.66;5097889;28;20052;-54
2020/12/18 09:58:16;;;;;;;36.28;20.83;;;;;;;6.75;74.27;100790.38;5098773;28;20104;-54
2020/12/18 10:00:42;;;;;;;36.85;20.38;;;;;;;6.81;74.19;100789.53;5098620;28;20326;-54
2020/12/18 10:03:08;;;;;;;45.88;23.45;;;;;;;6.82;73.95;100792.13;5096751;28;20139;-54
2020/12/18 10:05:34;;;;;;;39.35;22.83;;;;;;;6.84;73.33;100782.59;5098532;28;20458;-54
2020/12/18 10:07:59;;;;;;;41.10;22.02;;;;;;;6.83;73.33;100780.00;5098241;28;20044;-54
2020/12/18 10:10:26;;;;;;;50.20;24.38;;;;;;;6.75;73.16;100777.34;5098294;28;20056;-54
2020/12/18 10:12:53;;;;;;;42.90;22.15;;;;;;;6.82;73.10;100773.03;5098272;28;20048;-54
2020/12/18 10:15:19;;;;;;;36.35;21.17;;;;;;;6.85;73.20;100781.72;5098103;28;20131;-54
2020/12/18 10:17:45;;;;;;;39.95;21.63;;;;;;;6.82;73.24;100779.13;5098372;28;20352;-54
2020/12/18 10:20:11;;;;;;;47.58;23.77;;;;;;;6.91;73.64;100783.50;5097578;28;20047;-54
2020/12/18 10:22:37;;;;;;;37.53;20.13;;;;;;;7.06;73.64;100782.72;5096767;28;20048;-54
2020/12/18 10:25:02;;;;;;;38.03;21.35;;;;;;;7.12;72.95;100782.75;5096870;28;20102;-54
2020/12/18 10:27:28;;;;;;;35.63;20.85;;;;;;;7.24;73.13;100785.41;5096878;28;20367;-55
2020/12/18 10:29:54;;;;;;;38.67;20.85;;;;;;;7.32;72.92;100780.22;5097313;28;20055;-54
2020/12/18 10:32:22;;;;;;;30.77;17.45;;;;;;;7.38;72.36;100782.88;5097225;28;20109;-54
2020/12/18 10:34:48;;;;;;;38.40;19.35;;;;;;;7.57;72.25;100781.16;5097626;28;20052;-55
2020/12/18 10:37:14;;;;;;;35.05;19.65;;;;;;;7.71;71.92;100785.56;5097770;28;20352;-55
2020/12/18 10:39:40;;;;;;;37.13;20.13;;;;;;;7.78;71.53;100777.75;5097752;28;20047;-55
2020/12/18 10:42:07;;;;;;;34.13;18.20;;;;;;;7.90;71.31;100769.94;5097348;28;20318;-55
2020/12/18 10:44:34;;;;;;;33.42;19.20;;;;;;;8.02;71.24;100780.38;5096439;28;20447;-55
2020/12/18 10:47:00;;;;;;;28.45;16.92;;;;;;;8.10;71.26;100775.19;5097582;28;20052;-55
2020/12/18 10:49:26;;;;;;;33.95;19.10;;;;;;;8.24;70.88;100776.03;5097512;28;20428;-55
2020/12/18 10:51:52;;;;;;;97.90;41.10;;;;;;;8.26;70.45;100779.53;5097724;28;20085;-55
2020/12/18 10:54:18;;;;;;;40.25;22.27;;;;;;;8.23;70.44;100771.69;5097210;28;20048;-55
2020/12/18 10:56:45;;;;;;;38.65;21.60;;;;;;;8.28;70.44;100761.25;5097137;28;20462;-55
2020/12/18 10:59:11;;;;;;;36.53;19.88;;;;;;;8.46;70.45;100756.03;5097199;28;20447;-55
2020/12/18 11:01:37;;;;;;;31.23;19.00;;;;;;;8.55;69.41;100749.94;5096778;28;20451;-55
2020/12/18 11:04:03;;;;;;;28.95;18.88;;;;;;;8.62;69.97;100749.91;5096350;28;20059;-55
2020/12/18 11:06:29;;;;;;;28.45;16.42;;;;;;;8.75;69.04;100752.50;5096976;28;20071;-55
2020/12/18 11:08:56;;;;;;;28.70;16.60;;;;;;;8.83;69.39;100754.22;5097370;28;20048;-55
2020/12/18 11:11:21;;;;;;;28.13;18.05;;;;;;;8.80;68.65;100749.00;5096800;28;20052;-55
2020/12/18 11:13:47;;;;;;;37.22;24.80;;;;;;;8.67;68.01;100744.69;5096861;28;20044;-56
2020/12/18 11:16:15;;;;;;;33.08;20.08;;;;;;;8.87;68.60;100745.50;5096417;28;20081;-55
2020/12/18 11:18:41;;;;;;;31.98;17.98;;;;;;;8.94;68.65;100746.34;5096963;28;20101;-55
2020/12/18 11:21:07;;;;;;;27.80;16.50;;;;;;;8.98;68.16;100755.06;5096829;28;20052;-55
2020/12/18 11:23:35;;;;;;;30.58;18.95;;;;;;;9.08;67.83;100751.53;5095773;28;20109;-56
2020/12/18 11:26:01;;;;;;;25.73;15.52;;;;;;;9.02;67.80;100747.19;5096928;28;20089;-56
2020/12/18 11:28:27;;;;;;;26.30;16.45;;;;;;;9.10;67.16;100755.88;5097022;28;20122;-55
2020/12/18 11:30:53;;;;;;;28.80;16.10;;;;;;;9.10;67.80;100755.00;5062146;28;20494;-56
2020/12/18 11:33:18;;;;;;;30.10;17.70;;;;;;;9.09;67.38;100755.88;5096952;28;20040;-56
2020/12/18 11:35:44;;;;;;;28.15;16.38;;;;;;;9.07;67.39;100755.03;5096635;28;20048;-56
2020/12/18 11:38:11;;;;;;;27.30;16.10;;;;;;;9.08;66.78;100752.38;5095419;28;20428;-56